createdAt,value
2019-06-20T00:00:14.415Z,0.00
2019-06-20T00:01:14.327Z,0.00
2019-06-20T00:02:14.318Z,0.00
2019-06-20T00:03:14.255Z,0.00
2019-06-20T00:04:14.242Z,0.00
2019-06-20T00:05:14.217Z,0.00
2019-06-20T00:06:14.219Z,0.00
2019-06-20T00:07:14.141Z,0.00
2019-06-20T00:08:14.104Z,0.00
2019-06-20T00:09:14.063Z,0.00
2019-06-20T00:10:14.037Z,0.00
2019-06-20T00:11:14.017Z,0.00
2019-06-20T00:12:13.963Z,0.00
2019-06-20T00:13:13.915Z,0.00
2019-06-20T00:14:13.901Z,0.00
2019-06-20T00:15:13.882Z,0.00
2019-06-20T00:16:13.816Z,0.00
2019-06-20T00:17:13.778Z,0.00
2019-06-20T00:18:13.755Z,0.00
2019-06-20T00:19:13.708Z,0.00
2019-06-20T00:20:13.687Z,0.00
2019-06-20T00:21:13.651Z,0.00
2019-06-20T00:22:13.616Z,0.00
2019-06-20T00:23:13.574Z,0.00
2019-06-20T00:24:13.629Z,0.00
2019-06-20T00:25:13.512Z,0.00
2019-06-20T00:26:13.483Z,0.00
2019-06-20T00:27:13.459Z,0.00
2019-06-20T00:28:13.432Z,0.00
2019-06-20T00:29:13.373Z,0.00
2019-06-20T00:30:13.351Z,0.00
2019-06-20T00:31:13.316Z,0.00
2019-06-20T00:32:13.299Z,0.00
2019-06-20T00:33:13.244Z,0.00
2019-06-20T00:34:13.238Z,0.00
2019-06-20T00:35:13.198Z,0.00
2019-06-20T00:36:13.182Z,0.00
2019-06-20T00:37:13.131Z,0.00
2019-06-20T00:38:13.125Z,0.00
2019-06-20T00:39:13.048Z,0.00
2019-06-20T00:40:13.100Z,0.00
2019-06-20T00:41:12.996Z,0.00
2019-06-20T00:42:12.947Z,0.00
2019-06-20T00:43:17.413Z,0.00
2019-06-20T00:44:12.886Z,0.00
2019-06-20T00:45:12.842Z,0.00
2019-06-20T00:46:12.878Z,0.00
2019-06-20T00:47:12.840Z,0.00
2019-06-20T00:48:12.772Z,0.00
2019-06-20T00:49:12.743Z,0.00
2019-06-20T00:50:12.670Z,0.00
2019-06-20T00:51:12.638Z,0.00
2019-06-20T00:52:12.612Z,0.00
2019-06-20T00:53:12.575Z,0.00
2019-06-20T00:54:12.540Z,0.00
2019-06-20T00:55:12.504Z,0.00
2019-06-20T00:56:12.471Z,0.00
2019-06-20T00:57:12.440Z,0.00
2019-06-20T00:58:12.407Z,0.00
2019-06-20T00:59:12.390Z,0.00
2019-06-20T01:00:12.344Z,0.00
2019-06-20T01:01:12.301Z,0.00
2019-06-20T01:02:12.273Z,0.00
2019-06-20T01:03:12.247Z,0.00
2019-06-20T01:04:12.218Z,0.00
2019-06-20T01:05:12.166Z,0.00
2019-06-20T01:06:12.141Z,0.00
2019-06-20T01:07:12.097Z,0.00
2019-06-20T01:08:12.106Z,0.00
2019-06-20T01:09:12.043Z,0.00
2019-06-20T01:10:12.032Z,0.00
2019-06-20T01:11:11.984Z,0.00
2019-06-20T01:12:12.006Z,0.00
2019-06-20T01:13:11.949Z,0.00
2019-06-20T01:14:11.879Z,0.00
2019-06-20T01:15:11.900Z,0.00
2019-06-20T01:16:11.817Z,0.00
2019-06-20T01:17:11.774Z,0.00
2019-06-20T01:18:11.759Z,0.00
2019-06-20T01:19:11.711Z,0.00
2019-06-20T01:20:11.673Z,0.00
2019-06-20T01:21:11.625Z,0.00
2019-06-20T01:22:11.630Z,0.00
2019-06-20T01:23:11.574Z,0.00
2019-06-20T01:24:11.546Z,0.00
2019-06-20T01:25:11.537Z,0.00
2019-06-20T01:26:11.465Z,0.00
2019-06-20T01:27:11.431Z,0.00
2019-06-20T01:28:11.393Z,0.00
2019-06-20T01:29:11.356Z,0.00
2019-06-20T01:30:11.324Z,0.00
2019-06-20T01:31:11.289Z,0.00
2019-06-20T01:32:11.263Z,0.00
2019-06-20T01:33:11.222Z,0.00
2019-06-20T01:34:11.204Z,0.00
2019-06-20T01:35:11.162Z,0.00
2019-06-20T01:36:11.126Z,0.00
2019-06-20T01:37:11.097Z,0.00
2019-06-20T01:38:11.059Z,0.00
2019-06-20T01:39:11.020Z,0.00
2019-06-20T01:40:10.989Z,0.00
2019-06-20T01:41:10.957Z,0.00
2019-06-20T01:42:10.915Z,0.00
2019-06-20T01:43:10.885Z,0.00
2019-06-20T01:44:10.868Z,0.00
2019-06-20T01:45:10.846Z,0.00
2019-06-20T01:46:10.794Z,0.00
2019-06-20T01:47:10.756Z,0.00
2019-06-20T01:48:10.743Z,0.00
2019-06-20T01:49:10.702Z,0.00
2019-06-20T01:50:10.675Z,0.00
2019-06-20T01:51:10.678Z,0.00
2019-06-20T01:52:10.606Z,0.00
2019-06-20T01:53:10.556Z,0.00
2019-06-20T01:54:10.553Z,0.00
2019-06-20T01:55:10.507Z,0.00
2019-06-20T01:56:10.461Z,0.00
2019-06-20T01:57:10.440Z,0.00
2019-06-20T01:58:10.432Z,0.00
2019-06-20T01:59:10.378Z,0.00
2019-06-20T02:00:10.329Z,0.00
2019-06-20T02:01:10.316Z,0.00
2019-06-20T02:02:10.308Z,0.00
2019-06-20T02:03:10.206Z,0.00
2019-06-20T02:04:10.183Z,0.00
2019-06-20T02:05:10.145Z,0.00
2019-06-20T02:06:10.106Z,0.00
2019-06-20T02:07:10.078Z,0.00
2019-06-20T02:08:10.037Z,0.00
2019-06-20T02:09:10.005Z,0.00
2019-06-20T02:10:09.980Z,0.00
2019-06-20T02:11:09.935Z,0.00
2019-06-20T02:12:09.944Z,0.00
2019-06-20T02:13:09.930Z,0.00
2019-06-20T02:14:09.834Z,0.00
2019-06-20T02:15:09.810Z,0.00
2019-06-20T02:16:09.764Z,0.00
2019-06-20T02:17:09.749Z,0.00
2019-06-20T02:18:09.735Z,0.00
2019-06-20T02:19:09.668Z,0.00
2019-06-20T02:20:09.666Z,0.00
2019-06-20T02:21:09.614Z,0.00
2019-06-20T02:22:09.577Z,0.00
2019-06-20T02:23:09.537Z,0.00
2019-06-20T02:24:09.519Z,0.00
2019-06-20T02:25:09.472Z,0.00
2019-06-20T02:26:09.449Z,0.00
2019-06-20T02:27:09.426Z,0.00
2019-06-20T02:28:09.391Z,0.00
2019-06-20T02:29:09.340Z,0.00
2019-06-20T02:30:09.322Z,0.00
2019-06-20T02:31:09.294Z,0.00
2019-06-20T02:32:09.263Z,0.00
2019-06-20T02:33:09.240Z,0.00
2019-06-20T02:34:09.182Z,0.00
2019-06-20T02:35:09.132Z,0.00
2019-06-20T02:36:09.155Z,0.00
2019-06-20T02:37:09.091Z,0.00
2019-06-20T02:38:09.045Z,0.00
2019-06-20T02:39:08.984Z,0.00
2019-06-20T02:40:08.950Z,0.00
2019-06-20T02:41:08.917Z,0.00
2019-06-20T02:42:08.882Z,0.00
2019-06-20T02:43:08.868Z,0.00
2019-06-20T02:44:28.438Z,0.00
2019-06-20T02:45:08.778Z,0.00
2019-06-20T02:46:09.714Z,5.63
2019-06-20T02:47:08.715Z,5.63
2019-06-20T02:48:08.677Z,5.63
2019-06-20T02:49:08.636Z,5.63
2019-06-20T02:50:08.606Z,5.63
2019-06-20T02:51:08.570Z,5.63
2019-06-20T02:52:08.550Z,11.25
2019-06-20T02:53:08.506Z,11.25
2019-06-20T02:54:08.477Z,11.25
2019-06-20T02:55:08.446Z,11.25
2019-06-20T02:56:08.409Z,11.25
2019-06-20T02:57:08.396Z,11.25
2019-06-20T02:58:08.348Z,11.25
2019-06-20T02:59:08.354Z,11.25
2019-06-20T03:00:08.282Z,16.88
2019-06-20T03:01:08.253Z,16.88
2019-06-20T03:02:08.225Z,11.25
2019-06-20T03:03:08.172Z,11.25
2019-06-20T03:04:08.209Z,11.25
2019-06-20T03:05:08.123Z,5.63
2019-06-20T03:06:08.113Z,5.63
2019-06-20T03:07:08.066Z,5.63
2019-06-20T03:08:08.035Z,0.00
2019-06-20T03:09:07.970Z,0.00
2019-06-20T03:10:07.955Z,0.00
2019-06-20T03:11:07.943Z,0.00
2019-06-20T03:12:07.888Z,0.00
2019-06-20T03:13:09.558Z,0.00
2019-06-20T03:14:07.854Z,0.00
2019-06-20T03:15:07.818Z,5.63
2019-06-20T03:16:07.722Z,5.63
2019-06-20T03:17:07.751Z,5.63
2019-06-20T03:18:07.659Z,5.63
2019-06-20T03:19:07.627Z,5.63
2019-06-20T03:20:07.615Z,5.63
2019-06-20T03:21:07.563Z,5.63
2019-06-20T03:22:07.525Z,0.00
2019-06-20T03:23:07.490Z,0.00
2019-06-20T03:24:07.482Z,0.00
2019-06-20T03:25:07.430Z,0.00
2019-06-20T03:26:07.439Z,5.63
2019-06-20T03:27:07.397Z,5.63
2019-06-20T03:28:07.347Z,5.63
2019-06-20T03:29:07.305Z,5.63
2019-06-20T03:30:07.264Z,5.63
2019-06-20T03:31:07.223Z,5.63
2019-06-20T03:32:07.221Z,5.63
2019-06-20T03:33:07.159Z,0.00
2019-06-20T03:34:07.157Z,0.00
2019-06-20T03:35:07.133Z,0.00
2019-06-20T03:36:07.071Z,0.00
2019-06-20T03:37:07.038Z,0.00
2019-06-20T03:38:07.016Z,0.00
2019-06-20T03:39:06.974Z,0.00
2019-06-20T03:40:06.939Z,0.00
2019-06-20T03:41:06.917Z,0.00
2019-06-20T03:42:06.947Z,0.00
2019-06-20T03:43:06.825Z,0.00
2019-06-20T03:44:06.794Z,0.00
2019-06-20T03:45:06.812Z,0.00
2019-06-20T03:46:06.749Z,0.00
2019-06-20T03:47:06.720Z,0.00
2019-06-20T03:48:06.681Z,0.00
2019-06-20T03:49:06.634Z,5.63
2019-06-20T03:50:06.643Z,5.63
2019-06-20T03:51:06.602Z,5.63
2019-06-20T03:52:06.562Z,5.63
2019-06-20T03:53:06.490Z,5.63
2019-06-20T03:54:06.454Z,5.63
2019-06-20T03:55:06.423Z,5.63
2019-06-20T03:56:06.392Z,5.63
2019-06-20T03:57:06.415Z,5.63
2019-06-20T03:58:06.356Z,5.63
2019-06-20T03:59:06.305Z,5.63
2019-06-20T04:00:06.260Z,5.63
2019-06-20T04:01:06.221Z,11.25
2019-06-20T04:02:06.185Z,11.25
2019-06-20T04:03:06.152Z,11.25
2019-06-20T04:04:06.131Z,11.25
2019-06-20T04:05:06.089Z,11.25
2019-06-20T04:06:06.067Z,16.88
2019-06-20T04:07:06.028Z,16.88
2019-06-20T04:08:05.994Z,16.88
2019-06-20T04:09:05.964Z,22.50
2019-06-20T04:10:05.923Z,28.13
2019-06-20T04:11:05.895Z,28.13
2019-06-20T04:12:05.866Z,33.75
2019-06-20T04:13:05.827Z,39.38
2019-06-20T04:14:05.865Z,45.00
2019-06-20T04:15:18.614Z,45.00
2019-06-20T04:16:05.771Z,50.63
2019-06-20T04:17:05.678Z,50.63
2019-06-20T04:18:05.684Z,56.25
2019-06-20T04:19:05.686Z,67.50
2019-06-20T04:20:05.640Z,73.13
2019-06-20T04:21:05.583Z,84.38
2019-06-20T04:22:05.522Z,101.25
2019-06-20T04:23:05.511Z,106.88
2019-06-20T04:24:05.497Z,123.75
2019-06-20T04:25:05.436Z,140.63
2019-06-20T04:26:05.413Z,151.88
2019-06-20T04:27:05.353Z,163.13
2019-06-20T04:28:05.327Z,180.00
2019-06-20T04:29:05.285Z,196.88
2019-06-20T04:30:05.258Z,213.75
2019-06-20T04:31:05.214Z,236.25
2019-06-20T04:32:05.188Z,253.13
2019-06-20T04:33:05.158Z,275.63
2019-06-20T04:34:05.112Z,292.50
2019-06-20T04:35:05.081Z,315.00
2019-06-20T04:36:05.073Z,343.13
2019-06-20T04:37:05.019Z,371.25
2019-06-20T04:38:04.985Z,393.75
2019-06-20T04:39:18.334Z,421.88
2019-06-20T04:40:04.963Z,444.38
2019-06-20T04:41:04.883Z,466.88
2019-06-20T04:42:04.854Z,483.75
2019-06-20T04:43:04.816Z,495.00
2019-06-20T04:44:04.789Z,506.25
2019-06-20T04:45:04.786Z,517.50
2019-06-20T04:46:04.754Z,523.13
2019-06-20T04:47:04.692Z,528.75
2019-06-20T04:48:04.682Z,540.00
2019-06-20T04:49:04.672Z,534.38
2019-06-20T04:50:04.664Z,528.75
2019-06-20T04:51:04.700Z,523.13
2019-06-20T04:52:04.548Z,517.50
2019-06-20T04:53:04.513Z,511.88
2019-06-20T04:54:04.552Z,506.25
2019-06-20T04:55:04.442Z,500.63
2019-06-20T04:56:05.796Z,495.00
2019-06-20T04:57:04.432Z,489.38
2019-06-20T04:58:04.366Z,483.75
2019-06-20T04:59:04.347Z,489.38
2019-06-20T05:00:04.293Z,489.38
2019-06-20T05:01:04.301Z,489.38
2019-06-20T05:02:04.303Z,511.88
2019-06-20T05:03:04.195Z,517.50
2019-06-20T05:04:04.184Z,511.88
2019-06-20T05:05:04.142Z,540.00
2019-06-20T05:06:04.082Z,551.25
2019-06-20T05:07:04.050Z,579.38
2019-06-20T05:08:04.012Z,579.38
2019-06-20T05:09:03.991Z,568.13
2019-06-20T05:10:03.946Z,579.38
2019-06-20T05:11:03.903Z,596.25
2019-06-20T05:12:03.911Z,613.13
2019-06-20T05:13:03.839Z,630.00
2019-06-20T05:14:03.828Z,641.25
2019-06-20T05:15:03.788Z,663.75
2019-06-20T05:16:03.873Z,680.63
2019-06-20T05:17:07.023Z,703.13
2019-06-20T05:18:03.682Z,720.00
2019-06-20T05:19:03.757Z,736.88
2019-06-20T05:20:03.638Z,742.50
2019-06-20T05:21:03.593Z,748.13
2019-06-20T05:22:03.593Z,753.75
2019-06-20T05:23:03.546Z,753.75
2019-06-20T05:24:03.565Z,753.75
2019-06-20T05:25:03.502Z,753.75
2019-06-20T05:26:03.455Z,781.88
2019-06-20T05:27:03.439Z,815.63
2019-06-20T05:28:03.380Z,849.38
2019-06-20T05:29:05.511Z,950.63
2019-06-20T05:30:03.331Z,855.00
2019-06-20T05:31:03.285Z,978.75
2019-06-20T05:32:03.258Z,866.25
2019-06-20T05:33:03.233Z,821.25
2019-06-20T05:34:03.218Z,798.75
2019-06-20T05:35:03.349Z,787.50
2019-06-20T05:36:03.152Z,793.13
2019-06-20T05:37:03.097Z,804.38
2019-06-20T05:38:03.090Z,810.00
2019-06-20T05:39:03.032Z,826.88
2019-06-20T05:40:03.018Z,838.13
2019-06-20T05:41:02.997Z,855.00
2019-06-20T05:42:02.962Z,866.25
2019-06-20T05:43:03.026Z,883.13
2019-06-20T05:44:02.873Z,905.63
2019-06-20T05:45:02.845Z,922.50
2019-06-20T05:46:09.765Z,961.88
2019-06-20T05:47:12.363Z,1012.50
2019-06-20T05:48:02.751Z,1006.88
2019-06-20T05:49:02.748Z,1001.25
2019-06-20T05:50:02.704Z,1001.25
2019-06-20T05:51:02.686Z,1006.88
2019-06-20T05:52:02.650Z,1018.13
2019-06-20T05:53:02.610Z,1029.38
2019-06-20T05:54:02.575Z,1040.63
2019-06-20T05:55:02.551Z,1040.63
2019-06-20T05:56:02.523Z,1046.25
2019-06-20T05:57:03.710Z,1040.63
2019-06-20T05:58:02.456Z,1040.63
2019-06-20T05:59:02.455Z,1040.63
2019-06-20T06:00:02.401Z,1051.88
2019-06-20T06:01:02.411Z,1080.00
2019-06-20T06:02:02.355Z,1057.50
2019-06-20T06:03:06.659Z,1046.25
2019-06-20T06:04:02.295Z,1074.38
2019-06-20T06:05:02.268Z,1096.88
2019-06-20T06:06:02.243Z,1091.25
2019-06-20T06:07:02.227Z,1051.88
2019-06-20T06:08:02.182Z,1029.38
2019-06-20T06:09:02.198Z,1029.38
2019-06-20T06:10:04.358Z,1046.25
2019-06-20T06:11:02.072Z,1040.63
2019-06-20T06:12:02.062Z,1023.75
2019-06-20T06:13:03.084Z,1035.00
2019-06-20T06:14:01.991Z,1040.63
2019-06-20T06:15:01.967Z,1035.00
2019-06-20T06:16:01.917Z,1096.88
2019-06-20T06:17:01.930Z,1130.63
2019-06-20T06:18:01.935Z,1535.63
2019-06-20T06:19:01.835Z,1788.75
2019-06-20T06:20:01.949Z,1912.50
2019-06-20T06:21:01.781Z,1552.50
2019-06-20T06:22:01.758Z,1209.38
2019-06-20T06:23:01.736Z,1231.88
2019-06-20T06:24:01.695Z,1096.88
2019-06-20T06:25:01.688Z,1035.00
2019-06-20T06:26:01.650Z,1074.38
2019-06-20T06:27:01.623Z,1164.38
2019-06-20T06:28:01.577Z,1130.63
2019-06-20T06:29:01.712Z,1051.88
2019-06-20T06:30:01.607Z,787.50
2019-06-20T06:31:01.496Z,765.00
2019-06-20T06:32:01.470Z,753.75
2019-06-20T06:33:01.443Z,736.88
2019-06-20T06:34:01.412Z,748.13
2019-06-20T06:35:01.401Z,759.38
2019-06-20T06:36:01.529Z,770.63
2019-06-20T06:37:01.335Z,781.88
2019-06-20T06:38:01.300Z,810.00
2019-06-20T06:39:01.316Z,725.63
2019-06-20T06:40:01.263Z,742.50
2019-06-20T06:41:01.277Z,714.38
2019-06-20T06:42:01.227Z,736.88
2019-06-20T06:43:01.158Z,742.50
2019-06-20T06:44:01.152Z,714.38
2019-06-20T06:45:01.114Z,708.75
2019-06-20T06:46:01.130Z,714.38
2019-06-20T06:47:01.064Z,736.88
2019-06-20T06:48:01.029Z,748.13
2019-06-20T06:49:01.031Z,871.88
2019-06-20T06:50:00.956Z,776.25
2019-06-20T06:51:00.938Z,1113.75
2019-06-20T06:52:00.902Z,922.50
2019-06-20T06:53:00.870Z,1125.00
2019-06-20T06:54:00.840Z,1535.63
2019-06-20T06:55:00.811Z,1445.63
2019-06-20T06:56:00.776Z,1428.75
2019-06-20T06:57:00.745Z,1451.25
2019-06-20T06:58:00.729Z,1878.75
2019-06-20T06:59:00.701Z,2677.50
2019-06-20T07:00:00.665Z,2835.00
2019-06-20T07:01:00.634Z,2925.00
2019-06-20T07:02:00.608Z,3009.38
2019-06-20T07:03:00.578Z,2677.50
2019-06-20T07:04:00.561Z,2655.00
2019-06-20T07:05:00.533Z,2823.75
2019-06-20T07:06:00.495Z,2970.00
2019-06-20T07:07:00.479Z,2508.75
2019-06-20T07:08:00.444Z,2424.38
2019-06-20T07:09:00.448Z,2604.38
2019-06-20T07:10:00.404Z,2632.50
2019-06-20T07:11:00.383Z,2711.25
2019-06-20T07:12:00.366Z,2840.63
2019-06-20T07:13:00.488Z,3251.25
2019-06-20T07:14:00.333Z,3487.50
2019-06-20T07:15:27.877Z,2964.38
2019-06-20T07:16:00.279Z,2891.25
2019-06-20T07:17:00.889Z,3324.38
2019-06-20T07:18:00.194Z,3425.63
2019-06-20T07:19:00.188Z,2958.75
2019-06-20T07:20:00.237Z,2880.00
2019-06-20T07:21:00.111Z,2986.88
2019-06-20T07:22:00.083Z,3521.25
2019-06-20T07:23:00.087Z,3853.13
2019-06-20T07:24:00.087Z,3538.13
2019-06-20T07:25:00.034Z,3172.50
2019-06-20T07:26:00.005Z,2902.50
2019-06-20T07:26:59.984Z,2795.63
2019-06-20T07:27:59.954Z,2874.38
2019-06-20T07:28:59.938Z,2666.25
2019-06-20T07:29:59.915Z,3740.63
2019-06-20T07:30:59.979Z,3976.88
2019-06-20T07:31:59.874Z,3588.75
2019-06-20T07:32:59.855Z,3251.25
2019-06-20T07:33:59.825Z,2598.75
2019-06-20T07:34:59.799Z,3369.38
2019-06-20T07:35:59.792Z,2868.75
2019-06-20T07:36:59.757Z,3088.13
2019-06-20T07:37:59.736Z,3037.50
2019-06-20T07:38:59.713Z,3054.38
2019-06-20T07:39:59.707Z,2902.50
2019-06-20T07:40:59.774Z,2846.25
2019-06-20T07:41:59.659Z,3369.38
2019-06-20T07:42:59.638Z,3183.75
2019-06-20T07:43:59.629Z,3003.75
2019-06-20T07:44:59.610Z,2340.00
2019-06-20T07:46:02.851Z,3549.38
2019-06-20T07:46:59.571Z,2913.75
2019-06-20T07:47:59.546Z,3954.38
2019-06-20T07:48:59.538Z,2345.63
2019-06-20T07:49:59.488Z,2379.38
2019-06-20T07:50:59.466Z,3037.50
2019-06-20T07:51:59.498Z,2610.00
2019-06-20T07:53:02.473Z,2964.38
2019-06-20T07:53:59.425Z,2486.25
2019-06-20T07:55:00.317Z,2311.88
2019-06-20T07:55:59.344Z,2846.25
2019-06-20T07:56:59.325Z,2998.13
2019-06-20T07:57:59.310Z,2604.38
2019-06-20T07:58:59.289Z,2441.25
2019-06-20T07:59:59.268Z,2536.88
2019-06-20T08:00:59.237Z,3133.13
2019-06-20T08:01:59.230Z,2795.63
2019-06-20T08:02:59.198Z,2418.75
2019-06-20T08:03:59.190Z,2300.63
2019-06-20T08:04:59.178Z,2323.13
2019-06-20T08:05:59.133Z,2615.63
2019-06-20T08:06:59.122Z,2868.75
2019-06-20T08:07:59.095Z,2896.88
2019-06-20T08:08:59.079Z,3026.25
2019-06-20T08:09:59.052Z,2261.25
2019-06-20T08:10:59.045Z,2103.75
2019-06-20T08:11:59.012Z,2525.63
2019-06-20T08:12:58.995Z,2643.75
2019-06-20T08:13:58.981Z,1873.13
2019-06-20T08:15:14.003Z,1996.88
2019-06-20T08:15:58.917Z,2188.13
2019-06-20T08:16:58.938Z,3121.88
2019-06-20T08:17:58.907Z,2671.88
2019-06-20T08:18:58.864Z,2205.00
2019-06-20T08:19:58.842Z,2148.75
2019-06-20T08:20:58.837Z,1974.38
2019-06-20T08:21:58.809Z,1946.25
2019-06-20T08:22:58.833Z,1963.13
2019-06-20T08:23:58.793Z,2036.25
2019-06-20T08:24:59.049Z,2047.50
2019-06-20T08:25:59.289Z,2008.13
2019-06-20T08:26:59.178Z,2126.25
2019-06-20T08:27:59.463Z,1890.00
2019-06-20T08:29:15.258Z,1856.25
2019-06-20T08:29:59.045Z,1850.63
2019-06-20T08:30:58.991Z,1929.38
2019-06-20T08:31:59.774Z,2368.13
2019-06-20T08:33:01.158Z,2193.75
2019-06-20T08:33:59.245Z,2047.50
2019-06-20T08:34:59.424Z,1940.63
2019-06-20T08:35:58.880Z,1867.50
2019-06-20T08:36:59.265Z,1833.75
2019-06-20T08:37:59.358Z,1822.50
2019-06-20T08:38:58.672Z,1805.63
2019-06-20T08:39:58.469Z,1839.38
2019-06-20T08:40:58.562Z,1839.38
2019-06-20T08:41:59.219Z,1811.25
2019-06-20T08:42:58.860Z,1794.38
2019-06-20T08:43:58.700Z,1760.63
2019-06-20T08:44:59.424Z,1743.75
2019-06-20T08:45:59.505Z,1755.00
2019-06-20T08:46:59.281Z,1783.13
2019-06-20T08:47:58.373Z,1828.13
2019-06-20T08:48:59.461Z,1878.75
2019-06-20T08:49:59.689Z,1878.75
2019-06-20T08:50:58.515Z,1788.75
2019-06-20T08:51:59.174Z,1608.75
2019-06-20T08:52:59.468Z,1693.13
2019-06-20T08:53:59.221Z,1760.63
2019-06-20T08:54:59.521Z,1710.00
2019-06-20T08:55:59.320Z,1614.38
2019-06-20T08:56:59.035Z,1614.38
2019-06-20T08:57:59.454Z,1665.00
2019-06-20T08:58:58.537Z,1710.00
2019-06-20T08:59:58.840Z,1704.38
2019-06-20T09:01:00.008Z,1771.88
2019-06-20T09:01:59.993Z,1715.63
2019-06-20T09:02:58.672Z,1681.88
2019-06-20T09:03:58.502Z,1721.25
2019-06-20T09:04:58.063Z,1726.88
2019-06-20T09:05:58.252Z,1732.50
2019-06-20T09:06:59.157Z,1771.88
2019-06-20T09:07:58.997Z,1839.38
2019-06-20T09:08:58.276Z,1800.00
2019-06-20T09:09:57.682Z,1771.88
2019-06-20T09:10:57.615Z,1783.13
2019-06-20T09:11:58.589Z,1732.50
2019-06-20T09:12:57.573Z,1642.50
2019-06-20T09:13:57.555Z,1507.50
2019-06-20T09:14:58.875Z,1440.00
2019-06-20T09:15:58.716Z,1535.63
2019-06-20T09:16:59.225Z,1507.50
2019-06-20T09:17:58.486Z,1440.00
2019-06-20T09:18:58.417Z,1490.63
2019-06-20T09:19:58.043Z,1530.00
2019-06-20T09:20:58.074Z,1490.63
2019-06-20T09:21:57.992Z,1383.75
2019-06-20T09:22:58.832Z,1406.25
2019-06-20T09:23:57.775Z,1451.25
2019-06-20T09:24:58.427Z,1485.00
2019-06-20T09:25:57.582Z,1513.13
2019-06-20T09:26:57.254Z,1642.50
2019-06-20T09:27:58.140Z,1676.25
2019-06-20T09:28:57.211Z,1501.88
2019-06-20T09:29:58.437Z,1569.38
2019-06-20T09:30:57.190Z,1693.13
2019-06-20T09:31:58.470Z,1693.13
2019-06-20T09:32:57.836Z,1501.88
2019-06-20T09:34:01.608Z,1929.38
2019-06-20T09:34:57.039Z,2486.25
2019-06-20T09:35:57.478Z,2480.63
2019-06-20T09:36:57.548Z,2278.13
2019-06-20T09:37:57.167Z,2030.63
2019-06-20T09:38:57.836Z,2210.63
2019-06-20T09:39:57.198Z,2165.63
2019-06-20T09:40:56.925Z,2137.50
2019-06-20T09:41:56.837Z,1856.25
2019-06-20T09:42:56.825Z,2891.25
2019-06-20T09:43:56.811Z,2621.25
2019-06-20T09:44:56.769Z,3543.75
2019-06-20T09:45:58.288Z,2868.75
2019-06-20T09:46:58.104Z,3054.38
2019-06-20T09:47:58.120Z,3521.25
2019-06-20T09:48:56.680Z,3442.50
2019-06-20T09:49:57.704Z,3628.13
2019-06-20T09:50:57.012Z,3706.88
2019-06-20T09:51:56.707Z,3819.38
2019-06-20T09:52:56.786Z,1901.25
2019-06-20T09:53:56.578Z,3228.75
2019-06-20T09:54:56.577Z,3110.63
2019-06-20T09:55:57.753Z,1957.50
2019-06-20T09:56:58.286Z,2272.50
2019-06-20T09:57:56.697Z,2806.88
2019-06-20T09:58:58.250Z,3054.38
2019-06-20T10:00:07.689Z,2058.75
2019-06-20T10:00:57.460Z,1996.88
2019-06-20T10:01:58.504Z,2278.13
2019-06-20T10:02:57.886Z,2317.50
2019-06-20T10:03:56.806Z,3639.38
2019-06-20T10:04:56.663Z,4258.13
2019-06-20T10:05:56.672Z,3690.00
2019-06-20T10:06:56.676Z,3245.63
2019-06-20T10:07:56.710Z,2812.50
2019-06-20T10:08:56.554Z,3712.50
2019-06-20T10:09:56.372Z,3116.25
2019-06-20T10:10:56.328Z,3380.63
2019-06-20T10:11:56.177Z,3133.13
2019-06-20T10:12:56.114Z,2784.38
2019-06-20T10:13:56.914Z,2019.38
2019-06-20T10:14:56.208Z,1991.25
2019-06-20T10:15:56.044Z,1783.13
2019-06-20T10:16:56.892Z,1659.38
2019-06-20T10:17:56.024Z,1800.00
2019-06-20T10:18:56.565Z,2716.88
2019-06-20T10:19:56.339Z,2205.00
2019-06-20T10:20:57.594Z,2891.25
2019-06-20T10:21:56.078Z,2368.13
2019-06-20T10:22:57.308Z,3526.88
2019-06-20T10:23:56.080Z,3515.63
2019-06-20T10:24:55.850Z,3335.63
2019-06-20T10:25:55.814Z,3403.13
2019-06-20T10:26:55.790Z,4010.63
2019-06-20T10:27:55.773Z,3780.00
2019-06-20T10:28:55.758Z,3386.25
2019-06-20T10:29:55.766Z,3526.88
2019-06-20T10:30:55.723Z,3431.25
2019-06-20T10:31:55.689Z,3459.38
2019-06-20T10:32:55.647Z,3757.50
2019-06-20T10:33:56.825Z,3729.38
2019-06-20T10:34:57.110Z,3785.63
2019-06-20T10:35:57.144Z,3588.75
2019-06-20T10:36:56.961Z,3993.75
2019-06-20T10:37:56.936Z,3425.63
2019-06-20T10:38:56.845Z,3380.63
2019-06-20T10:39:56.845Z,2851.88
2019-06-20T10:40:58.625Z,3037.50
2019-06-20T10:41:57.165Z,3318.75
2019-06-20T10:42:56.676Z,3313.13
2019-06-20T10:43:56.340Z,3296.25
2019-06-20T10:44:56.233Z,3375.00
2019-06-20T10:45:56.632Z,3307.50
2019-06-20T10:46:55.335Z,3352.50
2019-06-20T10:47:55.330Z,3481.88
2019-06-20T10:48:55.289Z,3751.88
2019-06-20T10:49:55.267Z,4410.00
2019-06-20T10:50:55.258Z,4426.88
2019-06-20T10:51:55.249Z,4061.25
2019-06-20T10:52:55.254Z,5186.25
2019-06-20T10:53:55.212Z,5304.38
2019-06-20T10:54:55.204Z,5332.50
2019-06-20T10:55:55.130Z,4905.00
2019-06-20T10:56:55.117Z,4522.50
2019-06-20T10:57:55.097Z,5411.25
2019-06-20T10:58:55.079Z,5771.25
2019-06-20T10:59:55.067Z,4933.13
2019-06-20T11:00:55.073Z,2716.88
2019-06-20T11:01:55.024Z,4983.75
2019-06-20T11:02:55.000Z,6041.25
2019-06-20T11:03:54.976Z,4888.13
2019-06-20T11:04:54.962Z,3808.13
2019-06-20T11:05:54.928Z,1743.75
2019-06-20T11:06:54.897Z,4095.00
2019-06-20T11:07:54.904Z,3324.38
2019-06-20T11:08:54.872Z,1456.88
2019-06-20T11:09:54.826Z,1546.88
2019-06-20T11:10:54.821Z,1563.75
2019-06-20T11:11:54.778Z,1738.13
2019-06-20T11:12:56.185Z,3931.88
2019-06-20T11:13:54.759Z,2356.88
2019-06-20T11:14:54.710Z,3819.38
2019-06-20T11:15:54.696Z,5191.88
2019-06-20T11:16:54.682Z,3611.25
2019-06-20T11:17:56.645Z,4100.63
2019-06-20T11:18:54.629Z,2593.13
2019-06-20T11:19:54.610Z,3268.13
2019-06-20T11:20:54.575Z,2238.75
2019-06-20T11:21:54.582Z,1755.00
2019-06-20T11:22:54.584Z,1873.13
2019-06-20T11:23:54.550Z,1816.88
2019-06-20T11:24:54.525Z,1935.00
2019-06-20T11:25:54.494Z,1991.25
2019-06-20T11:26:54.466Z,2025.00
2019-06-20T11:27:54.471Z,2941.88
2019-06-20T11:28:55.773Z,1895.63
2019-06-20T11:29:54.413Z,1777.50
2019-06-20T11:31:00.199Z,1704.38
2019-06-20T11:31:54.355Z,1698.75
2019-06-20T11:32:54.334Z,1811.25
2019-06-20T11:33:54.322Z,5512.50
2019-06-20T11:34:54.275Z,2013.75
2019-06-20T11:35:54.246Z,1935.00
2019-06-20T11:36:54.225Z,2936.25
2019-06-20T11:37:54.210Z,2154.38
2019-06-20T11:38:54.197Z,2711.25
2019-06-20T11:39:54.156Z,2362.50
2019-06-20T11:40:54.140Z,1777.50
2019-06-20T11:41:54.117Z,2103.75
2019-06-20T11:42:54.091Z,2739.38
2019-06-20T11:43:54.069Z,1822.50
2019-06-20T11:44:54.041Z,2103.75
2019-06-20T11:45:54.023Z,1929.38
2019-06-20T11:46:53.999Z,1760.63
2019-06-20T11:47:53.977Z,2975.63
2019-06-20T11:48:53.985Z,3886.88
2019-06-20T11:49:53.980Z,5523.75
2019-06-20T11:50:53.965Z,5073.75
2019-06-20T11:51:53.906Z,4533.75
2019-06-20T11:52:53.883Z,4972.50
2019-06-20T11:53:53.842Z,4995.00
2019-06-20T11:54:53.872Z,5298.75
2019-06-20T11:55:53.858Z,5169.38
2019-06-20T11:56:53.791Z,2182.50
2019-06-20T11:57:53.782Z,4224.38
2019-06-20T11:58:53.714Z,3138.75
2019-06-20T11:59:53.698Z,1670.63
2019-06-20T12:01:03.439Z,1614.38
2019-06-20T12:01:53.667Z,1788.75
2019-06-20T12:02:53.639Z,3920.63
2019-06-20T12:03:53.621Z,4325.63
2019-06-20T12:04:53.602Z,4269.38
2019-06-20T12:05:53.567Z,2390.63
2019-06-20T12:06:53.562Z,4291.88
2019-06-20T12:07:53.628Z,4685.63
2019-06-20T12:08:53.506Z,4657.50
2019-06-20T12:09:53.515Z,4325.63
2019-06-20T12:10:53.494Z,4365.00
2019-06-20T12:11:53.463Z,5011.88
2019-06-20T12:12:53.442Z,5214.38
2019-06-20T12:13:53.416Z,5518.13
2019-06-20T12:14:53.372Z,5473.13
2019-06-20T12:15:53.372Z,5276.25
2019-06-20T12:16:53.332Z,5827.50
2019-06-20T12:17:53.393Z,5512.50
2019-06-20T12:18:53.314Z,1890.00
2019-06-20T12:19:53.278Z,1721.25
2019-06-20T12:20:53.254Z,1608.75
2019-06-20T12:21:53.220Z,1597.50
2019-06-20T12:22:53.212Z,1473.75
2019-06-20T12:23:53.211Z,1350.00
2019-06-20T12:24:53.169Z,1231.88
2019-06-20T12:25:53.152Z,1231.88
2019-06-20T12:26:53.128Z,1456.88
2019-06-20T12:27:53.260Z,4083.75
2019-06-20T12:28:53.104Z,4533.75
2019-06-20T12:29:53.096Z,5006.25
2019-06-20T12:30:53.081Z,5141.25